createdAt,value
2023-10-09T00:00:26.655Z,51.13
2023-10-09T00:02:00.174Z,50.96
2023-10-09T00:03:33.045Z,51.01
2023-10-09T00:05:16.135Z,51.10
2023-10-09T00:06:50.198Z,50.88
2023-10-09T00:08:28.160Z,50.97
2023-10-09T00:10:01.544Z,51.10
2023-10-09T00:11:39.692Z,51.11
2023-10-09T00:13:13.447Z,51.21
2023-10-09T00:14:49.549Z,51.26
2023-10-09T00:16:34.671Z,51.14
2023-10-09T00:18:13.576Z,50.83
2023-10-09T00:19:50.965Z,51.07
2023-10-09T00:21:23.712Z,50.94
2023-10-09T00:22:59.316Z,51.06
2023-10-09T00:24:33.770Z,51.11
2023-10-09T00:26:17.465Z,51.16
2023-10-09T00:27:55.449Z,51.33
2023-10-09T00:29:29.594Z,51.59
2023-10-09T00:31:05.838Z,51.25
2023-10-09T00:32:46.660Z,51.51
2023-10-09T00:34:20.746Z,51.74
2023-10-09T00:35:56.467Z,51.39
2023-10-09T00:37:35.491Z,51.52
2023-10-09T00:39:20.414Z,51.32
2023-10-09T00:41:06.386Z,51.25
2023-10-09T00:42:40.372Z,51.58
2023-10-09T00:44:13.201Z,51.35
2023-10-09T00:45:46.772Z,51.27
2023-10-09T00:47:22.477Z,51.37
2023-10-09T00:49:02.800Z,51.86
2023-10-09T00:50:36.981Z,51.54
2023-10-09T00:52:19.165Z,51.87
2023-10-09T00:53:55.065Z,51.60
2023-10-09T00:55:39.531Z,51.63
2023-10-09T00:57:14.964Z,51.52
2023-10-09T00:58:47.995Z,51.50
2023-10-09T01:00:46.926Z,51.49
2023-10-09T01:02:20.993Z,51.58
2023-10-09T01:03:54.524Z,51.64
2023-10-09T01:05:28.483Z,51.43
2023-10-09T01:07:22.535Z,51.61
2023-10-09T01:09:10.025Z,51.33
2023-10-09T01:10:57.623Z,51.88
2023-10-09T01:12:31.842Z,51.41
2023-10-09T01:14:13.443Z,51.59
2023-10-09T01:15:48.123Z,51.19
2023-10-09T01:17:32.080Z,51.13
2023-10-09T01:19:21.361Z,50.82
2023-10-09T01:20:54.872Z,50.69
2023-10-09T01:22:27.178Z,50.61
2023-10-09T01:24:06.203Z,50.27
2023-10-09T01:25:45.550Z,50.08
2023-10-09T01:27:18.871Z,49.90
2023-10-09T01:28:51.595Z,49.63
2023-10-09T01:30:24.900Z,49.64
2023-10-09T01:32:02.201Z,49.74
2023-10-09T01:33:37.781Z,49.64
2023-10-09T01:35:22.038Z,49.53
2023-10-09T01:36:57.315Z,49.27
2023-10-09T01:38:41.383Z,49.01
2023-10-09T01:40:26.427Z,48.77
2023-10-09T01:41:59.994Z,48.47
2023-10-09T01:43:35.359Z,48.67
2023-10-09T01:45:17.412Z,48.67
2023-10-09T01:46:55.945Z,48.32
2023-10-09T01:48:30.761Z,48.22
2023-10-09T01:50:06.347Z,47.95
2023-10-09T01:51:40.135Z,47.48
2023-10-09T01:53:19.090Z,47.41
2023-10-09T01:54:54.528Z,47.34
2023-10-09T01:56:28.396Z,47.39
2023-10-09T01:58:06.944Z,47.03
2023-10-09T01:59:40.085Z,47.22
2023-10-09T02:01:13.873Z,46.67
2023-10-09T02:02:46.595Z,46.86
2023-10-09T02:04:22.218Z,46.55
2023-10-09T02:06:00.922Z,46.25
2023-10-09T02:07:41.896Z,45.96
2023-10-09T02:09:23.661Z,45.82
2023-10-09T02:10:57.444Z,45.85
2023-10-09T02:12:34.910Z,45.41
2023-10-09T02:14:20.316Z,45.21
2023-10-09T02:15:55.505Z,45.02
2023-10-09T02:17:31.100Z,45.15
2023-10-09T02:19:09.333Z,44.68
2023-10-09T02:20:41.609Z,44.67
2023-10-09T02:22:15.126Z,44.27
2023-10-09T02:23:50.864Z,44.56
2023-10-09T02:25:30.348Z,44.28
2023-10-09T02:27:08.978Z,44.12
2023-10-09T02:28:45.276Z,43.47
2023-10-09T02:30:20.743Z,43.62
2023-10-09T02:32:01.872Z,43.58
2023-10-09T02:33:37.489Z,43.84
2023-10-09T02:35:20.186Z,43.84
2023-10-09T02:36:58.974Z,43.69
2023-10-09T02:38:35.392Z,43.57
2023-10-09T02:40:10.010Z,43.59
2023-10-09T02:41:50.851Z,43.52
2023-10-09T02:43:26.522Z,43.64
2023-10-09T02:45:05.034Z,43.40
2023-10-09T02:46:37.365Z,43.32
2023-10-09T02:48:12.326Z,43.44
2023-10-09T02:49:44.709Z,43.42
2023-10-09T02:51:32.148Z,43.34
2023-10-09T02:53:10.320Z,43.39
2023-10-09T02:54:43.727Z,43.37
2023-10-09T02:56:18.777Z,43.34
2023-10-09T02:57:53.446Z,43.25
2023-10-09T02:59:25.970Z,43.33
2023-10-09T03:01:01.397Z,43.42
2023-10-09T03:02:33.774Z,43.27
2023-10-09T03:04:07.213Z,43.06
2023-10-09T03:05:43.907Z,42.99
2023-10-09T03:07:17.527Z,43.10
2023-10-09T03:08:49.759Z,43.18
2023-10-09T03:10:26.612Z,43.30
2023-10-09T03:12:04.080Z,43.06
2023-10-09T03:13:37.731Z,43.24
2023-10-09T03:15:12.633Z,43.20
2023-10-09T03:16:46.483Z,43.33
2023-10-09T03:18:20.217Z,43.38
2023-10-09T03:19:53.537Z,43.47
2023-10-09T03:21:25.869Z,43.31
2023-10-09T03:22:59.085Z,43.47
2023-10-09T03:24:32.273Z,43.27
2023-10-09T03:26:20.917Z,43.33
2023-10-09T03:27:57.382Z,43.35
2023-10-09T03:29:29.914Z,43.43
2023-10-09T03:31:04.166Z,43.35
2023-10-09T03:32:38.132Z,43.68
2023-10-09T03:34:12.159Z,43.60
2023-10-09T03:35:46.140Z,43.64
2023-10-09T03:37:23.542Z,43.80
2023-10-09T03:38:59.490Z,43.90
2023-10-09T03:40:33.409Z,44.13
2023-10-09T03:42:06.845Z,44.01
2023-10-09T03:43:41.938Z,43.69
2023-10-09T03:45:25.742Z,43.70
2023-10-09T03:46:59.041Z,43.81
2023-10-09T03:48:33.656Z,43.92
2023-10-09T03:50:25.231Z,43.84
2023-10-09T03:52:00.847Z,43.87
2023-10-09T03:53:33.164Z,43.87
2023-10-09T03:55:12.198Z,44.00
2023-10-09T03:56:45.919Z,44.07
2023-10-09T03:58:20.323Z,43.90
2023-10-09T03:59:54.387Z,43.90
2023-10-09T04:01:29.660Z,44.16
2023-10-09T04:03:04.246Z,43.95
2023-10-09T04:04:38.187Z,44.10
2023-10-09T04:06:12.449Z,44.10
2023-10-09T04:07:44.705Z,44.11
2023-10-09T04:09:37.092Z,43.89
2023-10-09T04:11:17.360Z,44.30
2023-10-09T04:12:54.168Z,44.33
2023-10-09T04:14:34.993Z,44.13
2023-10-09T04:16:32.110Z,44.22
2023-10-09T04:18:07.061Z,44.10
2023-10-09T04:19:49.400Z,44.05
2023-10-09T04:21:35.499Z,44.28
2023-10-09T04:23:08.290Z,44.06
2023-10-09T04:24:43.433Z,44.25
2023-10-09T04:26:15.702Z,43.98
2023-10-09T04:27:49.182Z,43.79
2023-10-09T04:29:27.868Z,43.87
2023-10-09T04:31:07.524Z,43.87
2023-10-09T04:32:41.543Z,43.69
2023-10-09T04:34:30.060Z,43.70
2023-10-09T04:36:23.318Z,43.81
2023-10-09T04:38:05.794Z,43.63
2023-10-09T04:39:48.067Z,43.72
2023-10-09T04:41:28.879Z,43.76
2023-10-09T04:43:01.177Z,43.72
2023-10-09T04:44:37.450Z,43.61
2023-10-09T04:46:13.785Z,43.62
2023-10-09T04:47:59.658Z,43.78
2023-10-09T04:49:46.964Z,43.71
2023-10-09T04:51:33.082Z,43.80
2023-10-09T04:53:23.557Z,43.96
2023-10-09T04:55:17.684Z,43.87
2023-10-09T04:56:56.198Z,43.68
2023-10-09T04:58:33.425Z,43.44
2023-10-09T05:00:08.231Z,43.70
2023-10-09T05:01:48.056Z,43.67
2023-10-09T05:03:28.545Z,43.45
2023-10-09T05:05:18.053Z,43.46
2023-10-09T05:06:56.587Z,43.43
2023-10-09T05:08:34.210Z,43.09
2023-10-09T05:10:11.160Z,43.05
2023-10-09T05:11:55.946Z,43.04
2023-10-09T05:13:43.863Z,43.09
2023-10-09T05:15:16.638Z,43.15
2023-10-09T05:16:56.432Z,43.21
2023-10-09T05:18:28.811Z,43.13
2023-10-09T05:20:15.893Z,42.87
2023-10-09T05:21:49.451Z,42.97
2023-10-09T05:23:24.719Z,42.89
2023-10-09T05:24:59.636Z,43.02
2023-10-09T05:26:51.921Z,42.74
2023-10-09T05:28:32.364Z,42.93
2023-10-09T05:30:25.784Z,42.50
2023-10-09T05:32:04.501Z,42.56
2023-10-09T05:33:40.008Z,42.46
2023-10-09T05:35:17.046Z,42.43
2023-10-09T05:36:49.366Z,42.60
2023-10-09T05:38:26.178Z,42.55
2023-10-09T05:40:19.732Z,42.76
2023-10-09T05:42:01.327Z,43.01
2023-10-09T05:43:52.584Z,42.58
2023-10-09T05:45:43.556Z,42.52
2023-10-09T05:47:36.557Z,42.62
2023-10-09T05:49:21.159Z,42.28
2023-10-09T05:51:13.601Z,42.62
2023-10-09T05:53:04.655Z,42.38
2023-10-09T05:54:53.062Z,42.23
2023-10-09T05:56:58.360Z,41.84
2023-10-09T05:58:48.858Z,41.86
2023-10-09T06:00:39.729Z,41.60
2023-10-09T06:02:30.598Z,41.38
2023-10-09T06:04:16.606Z,41.71
2023-10-09T06:06:03.369Z,41.57
2023-10-09T06:08:03.206Z,41.66
2023-10-09T06:09:51.612Z,41.33
2023-10-09T06:11:40.767Z,41.45
2023-10-09T06:13:39.783Z,41.76
2023-10-09T06:15:32.997Z,41.79
2023-10-09T06:17:24.163Z,41.48
2023-10-09T06:19:09.456Z,41.63
2023-10-09T06:21:04.587Z,41.61
2023-10-09T06:22:51.813Z,41.36
2023-10-09T06:24:27.385Z,41.48
2023-10-09T06:26:22.154Z,41.41
2023-10-09T06:27:59.993Z,41.47
2023-10-09T06:29:36.661Z,41.20
2023-10-09T06:31:23.793Z,41.21
2023-10-09T06:33:14.796Z,40.94
2023-10-09T06:34:52.989Z,40.58
2023-10-09T06:36:32.614Z,40.43
2023-10-09T06:38:24.840Z,40.15
2023-10-09T06:40:13.148Z,40.26
2023-10-09T06:41:46.572Z,39.75
2023-10-09T06:43:29.183Z,39.80
2023-10-09T06:45:06.811Z,39.90
2023-10-09T06:46:46.047Z,39.89
2023-10-09T06:48:51.616Z,39.60
2023-10-09T06:50:43.929Z,39.49
2023-10-09T06:52:36.821Z,39.65
2023-10-09T06:54:17.659Z,39.48
2023-10-09T06:55:50.159Z,39.67
2023-10-09T06:57:40.733Z,39.11
2023-10-09T06:59:23.052Z,39.09
2023-10-09T07:01:20.947Z,38.77
2023-10-09T07:02:54.934Z,38.70
2023-10-09T07:04:42.168Z,39.06
2023-10-09T07:06:26.376Z,39.04
2023-10-09T07:08:20.171Z,39.29
2023-10-09T07:10:12.161Z,39.64
2023-10-09T07:12:05.779Z,39.88
2023-10-09T07:13:38.425Z,39.88
2023-10-09T07:15:31.535Z,39.78
2023-10-09T07:17:17.315Z,39.38
2023-10-09T07:18:50.983Z,39.48
2023-10-09T07:22:30.823Z,39.59
2023-10-09T07:24:15.620Z,39.19
2023-10-09T07:25:59.736Z,39.80
2023-10-09T07:27:45.911Z,39.21
2023-10-09T07:29:22.880Z,39.29
2023-10-09T07:30:59.151Z,38.82
2023-10-09T07:32:33.198Z,39.43
2023-10-09T07:34:08.846Z,39.02
2023-10-09T07:35:49.124Z,39.05
2023-10-09T07:37:25.370Z,38.91
2023-10-09T07:39:00.910Z,37.98
2023-10-09T07:40:53.337Z,37.64
2023-10-09T07:42:44.894Z,37.10
2023-10-09T07:44:32.075Z,36.60
2023-10-09T07:46:25.788Z,37.02
2023-10-09T07:48:06.442Z,36.91
2023-10-09T07:49:38.956Z,35.28
2023-10-09T07:51:14.147Z,35.77
2023-10-09T07:52:51.090Z,36.18
2023-10-09T07:54:33.428Z,36.02
2023-10-09T07:56:08.502Z,35.31
2023-10-09T07:57:41.005Z,34.83
2023-10-09T07:59:15.233Z,34.05
2023-10-09T08:01:07.517Z,33.91
2023-10-09T08:02:41.192Z,33.20
2023-10-09T08:04:15.937Z,33.70
2023-10-09T08:05:48.589Z,33.47
2023-10-09T08:08:05.988Z,33.38
2023-10-09T08:09:47.306Z,34.22
2023-10-09T08:12:01.138Z,33.24
2023-10-09T08:13:58.475Z,33.67
2023-10-09T08:15:52.572Z,33.95
2023-10-09T08:17:28.927Z,32.62
2023-10-09T08:19:01.277Z,32.91
2023-10-09T08:20:52.350Z,32.37
2023-10-09T08:22:53.543Z,30.63
2023-10-09T08:24:42.623Z,32.51
2023-10-09T08:26:29.747Z,31.78
2023-10-09T08:28:21.491Z,32.19
2023-10-09T08:30:13.772Z,31.82
2023-10-09T08:31:58.318Z,31.31
2023-10-09T08:35:31.106Z,30.70
2023-10-09T08:37:05.891Z,30.18
2023-10-09T08:38:39.657Z,29.70
2023-10-09T08:40:19.481Z,30.29
2023-10-09T08:41:53.310Z,30.48
2023-10-09T08:43:25.714Z,30.95
2023-10-09T08:45:01.602Z,30.78
2023-10-09T08:46:38.341Z,31.43
2023-10-09T08:48:16.692Z,31.82
2023-10-09T08:49:50.558Z,32.14
2023-10-09T08:52:58.847Z,32.41
2023-10-09T08:54:34.592Z,32.60
2023-10-09T08:56:09.018Z,32.53
2023-10-09T08:57:42.374Z,32.71
2023-10-09T08:59:16.090Z,32.21
2023-10-09T09:00:49.395Z,32.20
2023-10-09T09:02:22.849Z,31.81
2023-10-09T09:03:57.033Z,31.87
2023-10-09T09:05:30.831Z,31.85
2023-10-09T09:07:03.436Z,31.92
2023-10-09T09:08:37.960Z,31.50
2023-10-09T09:10:18.911Z,31.36
2023-10-09T09:11:54.040Z,31.02
2023-10-09T09:13:32.934Z,30.79
2023-10-09T09:15:19.903Z,31.41
2023-10-09T09:16:53.690Z,30.98
2023-10-09T09:18:32.426Z,31.09
2023-10-09T09:20:24.157Z,30.84
2023-10-09T09:22:00.608Z,30.79
2023-10-09T09:23:33.961Z,30.44
2023-10-09T09:25:10.823Z,30.55
2023-10-09T09:26:47.223Z,30.44
2023-10-09T09:28:22.872Z,30.61
2023-10-09T09:29:55.622Z,30.46
2023-10-09T09:31:29.016Z,30.22
2023-10-09T09:33:21.931Z,30.02
2023-10-09T09:34:57.002Z,30.10
2023-10-09T09:36:30.666Z,30.06
2023-10-09T09:38:07.240Z,30.30
2023-10-09T09:39:52.936Z,29.97
2023-10-09T09:41:29.177Z,29.88
2023-10-09T09:43:05.978Z,29.89
2023-10-09T09:44:46.062Z,29.94
2023-10-09T09:46:21.721Z,29.97
2023-10-09T09:47:59.683Z,30.65
2023-10-09T09:49:33.050Z,30.23
2023-10-09T09:51:07.427Z,30.24
2023-10-09T09:52:40.661Z,30.10
2023-10-09T09:54:16.894Z,30.40
2023-10-09T09:55:59.593Z,30.66
2023-10-09T09:57:40.792Z,30.29
2023-10-09T09:59:22.704Z,30.73
2023-10-09T10:01:03.164Z,30.44
2023-10-09T10:02:39.973Z,30.01
2023-10-09T10:04:21.747Z,30.23
2023-10-09T10:05:59.539Z,30.15
2023-10-09T10:07:44.490Z,30.08
2023-10-09T10:09:40.073Z,29.75
2023-10-09T10:11:45.967Z,29.64
2023-10-09T10:13:25.286Z,30.19
2023-10-09T10:15:00.973Z,30.37
2023-10-09T10:17:07.645Z,29.66
2023-10-09T10:19:00.958Z,30.16
2023-10-09T10:20:33.826Z,29.82
2023-10-09T10:22:28.669Z,28.40
2023-10-09T10:24:07.083Z,29.20
2023-10-09T10:25:44.125Z,29.31
2023-10-09T10:27:25.269Z,29.64
2023-10-09T10:29:24.766Z,29.52
2023-10-09T10:31:00.941Z,29.88
2023-10-09T10:32:56.082Z,29.29
2023-10-09T10:34:51.227Z,30.10
2023-10-09T10:36:26.356Z,29.65
2023-10-09T10:38:12.658Z,28.99
2023-10-09T10:39:52.726Z,27.50
2023-10-09T10:41:25.132Z,28.41
2023-10-09T10:43:10.918Z,28.47
2023-10-09T10:44:46.177Z,28.67
2023-10-09T10:46:26.062Z,28.70
2023-10-09T10:48:07.934Z,28.43
2023-10-09T10:49:45.051Z,28.36
2023-10-09T10:51:23.189Z,28.08
2023-10-09T10:53:15.236Z,27.98
2023-10-09T10:54:47.615Z,27.92
2023-10-09T10:56:20.199Z,28.29
2023-10-09T10:57:56.975Z,28.63
2023-10-09T10:59:37.962Z,28.47
2023-10-09T11:01:14.885Z,28.18
2023-10-09T11:02:49.524Z,28.19
2023-10-09T11:04:40.277Z,27.69
2023-10-09T11:06:15.556Z,27.61
2023-10-09T11:07:54.139Z,27.82
2023-10-09T11:09:50.362Z,27.45
2023-10-09T11:11:33.327Z,27.68
2023-10-09T11:13:24.020Z,28.03
2023-10-09T11:15:08.969Z,28.03
2023-10-09T11:16:43.421Z,27.99
2023-10-09T11:18:20.897Z,27.69
2023-10-09T11:19:55.841Z,27.96
2023-10-09T11:21:41.679Z,27.84
2023-10-09T11:23:17.961Z,28.05
2023-10-09T11:25:12.907Z,27.78
2023-10-09T11:26:55.313Z,27.49
2023-10-09T11:28:31.381Z,27.53
2023-10-09T11:30:22.959Z,27.43
2023-10-09T11:32:02.539Z,27.14
2023-10-09T11:33:50.136Z,27.07
2023-10-09T11:35:29.630Z,27.49
2023-10-09T11:37:14.507Z,27.39
2023-10-09T11:38:47.228Z,27.30
2023-10-09T11:40:34.131Z,26.65
2023-10-09T11:42:08.863Z,27.18
2023-10-09T11:43:55.034Z,26.71
2023-10-09T11:45:31.270Z,26.73
2023-10-09T11:47:24.039Z,26.79
2023-10-09T11:49:26.829Z,25.59
2023-10-09T11:51:20.188Z,26.71
2023-10-09T11:53:34.230Z,25.66
2023-10-09T11:55:12.192Z,26.23
2023-10-09T11:56:44.674Z,26.08
2023-10-09T11:58:23.937Z,26.61
2023-10-09T11:59:57.266Z,26.23
2023-10-09T12:01:36.818Z,26.35
2023-10-09T12:03:10.455Z,26.35
2023-10-09T12:04:46.752Z,26.26
2023-10-09T12:06:24.144Z,25.67
2023-10-09T12:07:58.764Z,26.12
2023-10-09T12:09:31.176Z,25.94
2023-10-09T12:11:10.632Z,26.16
2023-10-09T12:12:47.830Z,26.07
2023-10-09T12:14:24.988Z,26.27
2023-10-09T12:15:59.092Z,25.95
2023-10-09T12:17:32.598Z,25.87
2023-10-09T12:19:10.566Z,25.87
2023-10-09T12:20:51.260Z,25.94
2023-10-09T12:22:28.704Z,26.16
2023-10-09T12:24:02.924Z,25.95
2023-10-09T12:25:36.690Z,26.29
2023-10-09T12:27:12.577Z,25.82
2023-10-09T12:28:47.733Z,25.95
2023-10-09T12:30:27.923Z,25.86
2023-10-09T12:32:01.399Z,25.99
2023-10-09T12:33:40.889Z,25.79
2023-10-09T12:35:18.469Z,25.71
2023-10-09T12:36:52.329Z,25.97
2023-10-09T12:38:33.097Z,25.55
2023-10-09T12:40:11.771Z,25.87
2023-10-09T12:41:44.075Z,25.62
2023-10-09T12:43:18.203Z,25.75
2023-10-09T12:44:52.996Z,25.74
2023-10-09T12:46:26.958Z,25.58
2023-10-09T12:48:04.298Z,25.36
2023-10-09T12:49:39.627Z,25.59
2023-10-09T12:51:17.443Z,25.06
2023-10-09T12:52:51.956Z,25.42
2023-10-09T12:54:29.469Z,25.08
2023-10-09T12:56:02.785Z,25.30
2023-10-09T12:57:35.298Z,24.93
2023-10-09T12:59:09.084Z,24.58
2023-10-09T13:00:45.618Z,24.90
2023-10-09T13:02:30.065Z,24.97
2023-10-09T13:04:02.772Z,25.00
2023-10-09T13:05:36.063Z,24.60
2023-10-09T13:07:09.521Z,24.86
2023-10-09T13:08:42.154Z,24.61
2023-10-09T13:10:17.425Z,24.30
2023-10-09T13:11:51.730Z,24.81
2023-10-09T13:13:24.962Z,24.89
2023-10-09T13:14:57.105Z,24.69
2023-10-09T13:16:30.598Z,24.71
2023-10-09T13:18:03.016Z,25.07
2023-10-09T13:19:36.240Z,24.77
2023-10-09T13:21:08.664Z,24.69
2023-10-09T13:22:42.361Z,24.88
2023-10-09T13:24:17.247Z,24.39
2023-10-09T13:25:51.009Z,24.54
2023-10-09T13:27:24.451Z,24.39
2023-10-09T13:28:58.139Z,24.20
2023-10-09T13:30:31.869Z,24.24
2023-10-09T13:32:14.760Z,24.42
2023-10-09T13:33:47.332Z,24.38
2023-10-09T13:35:21.298Z,24.14
2023-10-09T13:36:54.690Z,24.31
2023-10-09T13:38:28.036Z,24.08
2023-10-09T13:40:09.937Z,24.08
2023-10-09T13:41:43.695Z,24.24
2023-10-09T13:43:18.283Z,23.86
2023-10-09T13:44:54.908Z,23.89
2023-10-09T13:46:28.223Z,24.17
2023-10-09T13:48:04.011Z,24.15
2023-10-09T13:49:43.287Z,24.28
2023-10-09T13:51:18.967Z,24.00
2023-10-09T13:52:55.501Z,24.33
2023-10-09T13:54:40.844Z,24.13
2023-10-09T13:56:19.608Z,24.05
2023-10-09T13:57:58.702Z,24.41
2023-10-09T13:59:31.206Z,24.17
2023-10-09T14:01:09.677Z,24.43
2023-10-09T14:02:42.252Z,24.46
2023-10-09T14:04:19.686Z,24.41
2023-10-09T14:05:58.238Z,24.27
2023-10-09T14:07:36.219Z,24.35
2023-10-09T14:09:10.911Z,24.58
2023-10-09T14:10:43.241Z,24.50
2023-10-09T14:12:20.471Z,24.88
2023-10-09T14:14:06.130Z,24.49
2023-10-09T14:15:47.285Z,24.29
2023-10-09T14:17:24.767Z,24.41
2023-10-09T14:19:00.556Z,24.50
2023-10-09T14:20:33.162Z,24.25
2023-10-09T14:22:06.651Z,24.34
2023-10-09T14:23:38.822Z,24.45
2023-10-09T14:25:16.907Z,24.11
2023-10-09T14:26:53.309Z,24.77
2023-10-09T14:28:30.193Z,24.60
2023-10-09T14:30:13.816Z,24.89
2023-10-09T14:31:50.841Z,24.41
2023-10-09T14:33:24.895Z,24.28
2023-10-09T14:35:02.549Z,24.58
2023-10-09T14:36:35.028Z,24.38
2023-10-09T14:38:12.854Z,24.69
2023-10-09T14:39:49.512Z,24.51
2023-10-09T14:41:24.514Z,24.57
2023-10-09T14:42:59.199Z,24.83
2023-10-09T14:44:32.645Z,24.55
2023-10-09T14:46:12.027Z,24.43
2023-10-09T14:47:48.158Z,24.93
2023-10-09T14:49:22.707Z,24.95
2023-10-09T14:50:59.274Z,24.89
2023-10-09T14:52:32.839Z,25.04
2023-10-09T14:54:09.000Z,24.99
2023-10-09T14:55:46.634Z,25.10
2023-10-09T14:57:19.989Z,24.97
2023-10-09T14:58:52.640Z,25.01
2023-10-09T15:00:27.717Z,24.97
2023-10-09T15:02:02.889Z,25.26
2023-10-09T15:03:39.012Z,25.28
2023-10-09T15:05:13.137Z,25.06
2023-10-09T15:06:49.625Z,25.02
2023-10-09T15:08:22.054Z,25.22
2023-10-09T15:10:05.151Z,25.44
2023-10-09T15:11:42.825Z,25.36
2023-10-09T15:13:15.171Z,25.46
2023-10-09T15:14:48.343Z,25.40
2023-10-09T15:16:22.950Z,25.60
2023-10-09T15:17:57.721Z,26.05
2023-10-09T15:19:32.031Z,26.03
2023-10-09T15:21:04.969Z,26.37
2023-10-09T15:22:39.071Z,26.40
2023-10-09T15:24:16.241Z,26.50
2023-10-09T15:25:53.149Z,26.57
2023-10-09T15:27:27.009Z,26.68
2023-10-09T15:29:04.853Z,26.68
2023-10-09T15:30:42.272Z,27.17
2023-10-09T15:32:23.772Z,27.05
2023-10-09T15:33:58.876Z,27.09
2023-10-09T15:35:35.034Z,27.42
2023-10-09T15:37:08.673Z,27.33
2023-10-09T15:38:42.318Z,27.55
2023-10-09T15:40:15.719Z,27.60
2023-10-09T15:41:50.172Z,27.76
2023-10-09T15:43:22.358Z,27.98
2023-10-09T15:44:55.989Z,27.67
2023-10-09T15:46:34.772Z,27.40
2023-10-09T15:48:07.961Z,27.85
2023-10-09T15:49:45.149Z,27.90
2023-10-09T15:51:18.127Z,28.54
2023-10-09T15:52:53.223Z,27.93
2023-10-09T15:54:28.610Z,28.54
2023-10-09T15:56:02.470Z,28.91
2023-10-09T15:57:36.102Z,28.84
2023-10-09T15:59:08.607Z,29.02
2023-10-09T16:00:42.381Z,29.10
2023-10-09T16:02:16.506Z,28.87
2023-10-09T16:03:51.248Z,28.92
2023-10-09T16:05:27.167Z,29.13
2023-10-09T16:07:00.927Z,29.51
2023-10-09T16:08:33.253Z,29.46
2023-10-09T16:10:09.435Z,29.32
2023-10-09T16:11:41.727Z,29.55
2023-10-09T16:13:15.350Z,29.63
2023-10-09T16:14:47.558Z,29.97
2023-10-09T16:16:27.473Z,30.87
2023-10-09T16:18:04.492Z,30.54
2023-10-09T16:19:38.456Z,30.90
2023-10-09T16:21:13.739Z,30.94
2023-10-09T16:22:46.946Z,31.53
2023-10-09T16:24:20.816Z,31.68
2023-10-09T16:25:53.872Z,31.82
2023-10-09T16:27:28.761Z,31.56
2023-10-09T16:29:01.324Z,31.59
2023-10-09T16:30:34.672Z,31.29
2023-10-09T16:32:08.711Z,31.77
2023-10-09T16:33:42.341Z,31.83
2023-10-09T16:35:14.922Z,32.20
2023-10-09T16:36:49.562Z,31.96
2023-10-09T16:38:23.840Z,32.33
2023-10-09T16:39:59.416Z,32.35
2023-10-09T16:41:41.186Z,32.69
2023-10-09T16:43:15.718Z,33.56
2023-10-09T16:44:49.066Z,33.54
2023-10-09T16:46:23.255Z,33.75
2023-10-09T16:48:00.292Z,34.43
2023-10-09T16:49:33.184Z,34.85
2023-10-09T16:51:09.857Z,35.26
2023-10-09T16:52:44.364Z,36.22
2023-10-09T16:54:17.995Z,36.00
2023-10-09T16:55:50.765Z,34.99
2023-10-09T16:57:24.960Z,35.07
2023-10-09T16:58:58.200Z,35.53
2023-10-09T17:00:31.033Z,35.51
2023-10-09T17:02:08.466Z,36.06
2023-10-09T17:03:44.178Z,35.38
2023-10-09T17:05:29.326Z,35.20
2023-10-09T17:07:06.170Z,35.19
2023-10-09T17:08:43.656Z,35.15
2023-10-09T17:10:18.393Z,35.41
2023-10-09T17:11:53.300Z,35.28
2023-10-09T17:13:27.630Z,35.43
2023-10-09T17:14:59.893Z,35.44
2023-10-09T17:16:33.464Z,35.44
2023-10-09T17:18:08.213Z,36.04
2023-10-09T17:19:44.161Z,35.64
2023-10-09T17:21:17.109Z,35.84
2023-10-09T17:22:51.096Z,36.12
2023-10-09T17:24:24.718Z,36.28
2023-10-09T17:25:59.946Z,36.46
2023-10-09T17:27:32.249Z,36.69
2023-10-09T17:29:05.795Z,36.59
2023-10-09T17:30:38.240Z,36.78
2023-10-09T17:32:13.394Z,36.89
2023-10-09T17:33:45.739Z,36.90
2023-10-09T17:35:19.078Z,37.07
2023-10-09T17:36:51.474Z,37.29
2023-10-09T17:38:24.940Z,37.57
2023-10-09T17:39:59.862Z,37.62
2023-10-09T17:41:36.419Z,37.98
2023-10-09T17:43:08.682Z,38.09
2023-10-09T17:44:42.033Z,37.51
2023-10-09T17:46:14.213Z,38.26
2023-10-09T17:47:50.980Z,38.16
2023-10-09T17:49:26.627Z,38.05
2023-10-09T17:50:59.150Z,38.11
2023-10-09T17:52:34.625Z,38.95
2023-10-09T17:54:10.583Z,38.58
2023-10-09T17:55:45.517Z,38.63
2023-10-09T17:57:18.868Z,38.65
2023-10-09T17:58:51.670Z,38.92
2023-10-09T18:00:24.931Z,39.36
2023-10-09T18:01:58.792Z,39.11
2023-10-09T18:03:31.866Z,39.62
2023-10-09T18:05:05.717Z,39.47
2023-10-09T18:06:40.859Z,39.60
2023-10-09T18:08:15.980Z,39.76
2023-10-09T18:09:53.342Z,40.03
2023-10-09T18:11:27.968Z,39.78
2023-10-09T18:13:00.713Z,40.03
2023-10-09T18:14:35.484Z,40.08
2023-10-09T18:16:09.789Z,39.95
2023-10-09T18:17:45.502Z,39.80
2023-10-09T18:19:21.644Z,40.15
2023-10-09T18:20:54.640Z,40.22
2023-10-09T18:22:30.001Z,40.22
2023-10-09T18:24:06.703Z,40.60
2023-10-09T18:25:41.631Z,40.44
2023-10-09T18:27:15.594Z,40.55
2023-10-09T18:28:49.550Z,40.78
2023-10-09T18:30:27.357Z,40.75
2023-10-09T18:32:01.752Z,40.84
2023-10-09T18:33:35.384Z,40.89
2023-10-09T18:35:10.762Z,40.48
2023-10-09T18:36:43.001Z,40.83
2023-10-09T18:38:17.579Z,40.92
2023-10-09T18:39:50.775Z,41.39
2023-10-09T18:41:25.346Z,41.02
2023-10-09T18:42:59.133Z,41.42
2023-10-09T18:44:32.498Z,41.25
2023-10-09T18:46:06.180Z,41.38
2023-10-09T18:47:40.458Z,41.44
2023-10-09T18:49:13.230Z,41.69
2023-10-09T18:50:46.632Z,41.64
2023-10-09T18:52:19.177Z,41.89
2023-10-09T18:53:53.500Z,41.71
2023-10-09T18:55:27.904Z,42.06
2023-10-09T18:57:01.470Z,42.29
2023-10-09T18:58:35.070Z,42.55
2023-10-09T19:00:12.417Z,42.68
2023-10-09T19:01:48.617Z,43.31
2023-10-09T19:03:22.129Z,42.75
2023-10-09T19:04:54.465Z,43.05
2023-10-09T19:06:29.700Z,43.19
2023-10-09T19:08:01.955Z,43.14
2023-10-09T19:09:36.494Z,43.53
2023-10-09T19:11:10.967Z,43.41
2023-10-09T19:12:44.668Z,42.78
2023-10-09T19:14:19.377Z,43.43
2023-10-09T19:15:52.770Z,43.31
2023-10-09T19:17:25.754Z,43.39
2023-10-09T19:19:05.809Z,43.35
2023-10-09T19:20:39.745Z,43.31
2023-10-09T19:22:14.983Z,43.35
2023-10-09T19:23:47.744Z,43.60
2023-10-09T19:25:28.349Z,43.32
2023-10-09T19:27:03.115Z,43.67
2023-10-09T19:28:39.196Z,43.63
2023-10-09T19:30:18.351Z,43.92
2023-10-09T19:31:52.225Z,44.35
2023-10-09T19:33:24.592Z,43.51
2023-10-09T19:34:58.087Z,43.73
2023-10-09T19:36:30.528Z,43.82
2023-10-09T19:38:04.242Z,43.83
2023-10-09T19:39:36.492Z,43.89
2023-10-09T19:41:12.779Z,44.36
2023-10-09T19:42:47.576Z,44.22
2023-10-09T19:44:19.914Z,44.01
2023-10-09T19:45:54.586Z,44.22
2023-10-09T19:47:26.952Z,44.09
2023-10-09T19:49:00.231Z,44.37
2023-10-09T19:50:32.805Z,44.48
2023-10-09T19:52:06.648Z,44.63
2023-10-09T19:53:38.802Z,44.46
2023-10-09T19:55:12.138Z,44.71
2023-10-09T19:56:46.666Z,44.92
2023-10-09T19:58:19.963Z,44.90
2023-10-09T19:59:56.035Z,44.66
2023-10-09T20:01:30.938Z,45.00
2023-10-09T20:03:03.522Z,44.87
2023-10-09T20:04:38.092Z,45.45
2023-10-09T20:06:11.203Z,44.95
2023-10-09T20:07:44.545Z,45.75
2023-10-09T20:09:18.472Z,45.03
2023-10-09T20:10:51.955Z,44.79
2023-10-09T20:12:24.400Z,44.86
2023-10-09T20:13:58.034Z,44.80
2023-10-09T20:15:32.094Z,44.94
2023-10-09T20:17:06.691Z,45.09
2023-10-09T20:18:43.775Z,45.26
2023-10-09T20:20:17.585Z,44.98
2023-10-09T20:21:51.002Z,45.21
2023-10-09T20:23:24.850Z,45.24
2023-10-09T20:24:59.144Z,45.64
2023-10-09T20:26:31.489Z,45.47
2023-10-09T20:28:05.191Z,45.52
2023-10-09T20:29:39.285Z,45.31
2023-10-09T20:31:13.425Z,45.20
2023-10-09T20:32:48.109Z,45.43
2023-10-09T20:34:21.503Z,45.37
2023-10-09T20:35:57.363Z,45.66
2023-10-09T20:37:30.971Z,45.65
2023-10-09T20:39:03.217Z,45.56
2023-10-09T20:40:36.674Z,45.71
2023-10-09T20:42:08.894Z,45.56
2023-10-09T20:43:42.320Z,45.95
2023-10-09T20:45:16.300Z,46.03
2023-10-09T20:46:49.722Z,45.99
2023-10-09T20:48:23.404Z,46.02
2023-10-09T20:49:58.144Z,46.22
2023-10-09T20:51:36.737Z,46.13
2023-10-09T20:53:16.045Z,46.37
2023-10-09T20:54:49.251Z,46.36
2023-10-09T20:56:23.624Z,46.32
2023-10-09T20:57:58.051Z,46.23
2023-10-09T20:59:34.218Z,46.01
2023-10-09T21:01:15.805Z,46.22
2023-10-09T21:02:50.401Z,46.46
2023-10-09T21:04:25.223Z,46.33
2023-10-09T21:06:00.214Z,46.55
2023-10-09T21:07:33.442Z,46.51